Time;durP1;ratioP1;P1;durP2;ratioP2;P2;SDS_P1;SDS_P2;PMS_P1;PMS_P2;Temp;Humidity;BMP_temperature;BMP_pressure;BME280_temperature;BME280_humidity;BME280_pressure;Samples;Min_cycle;Max_cycle;Signal;HPM_P1;HPM_P2
2024/04/08 00:05:18;;;;;;;9.48;2.60;;;;;;;20.81;41.05;94144.41;5917720;24;20203;-91
2024/04/08 01:15:48;;;;;;;8.93;2.60;;;;;;;19.92;41.65;94103.72;5905354;23;20175;-89
2024/04/08 01:18:15;;;;;;;7.80;2.42;;;;;;;19.88;41.63;94105.31;6134316;23;20210;-89
2024/04/08 01:21:41;;;;;;;5.75;2.28;;;;;;;19.92;41.81;94114.19;6149877;23;20217;-89
2024/04/08 01:24:56;;;;;;;6.20;2.25;;;;;;;19.88;41.84;94106.09;6029402;23;20277;-89
2024/04/08 01:35:11;;;;;;;6.13;2.78;;;;;;;19.94;41.92;94118.09;5973365;23;20210;-89
2024/04/08 02:05:14;;;;;;;9.38;2.70;;;;;;;19.67;41.68;94066.25;5775409;24;20196;-90
2024/04/08 02:23:41;;;;;;;7.47;2.78;;;;;;;19.93;40.27;93978.06;6174019;23;20198;-89
2024/04/08 02:26:32;;;;;;;8.80;2.80;;;;;;;20.04;39.91;93970.91;6178698;23;20206;-89
2024/04/08 02:29:22;;;;;;;9.32;2.65;;;;;;;20.02;39.71;93955.50;6178452;23;20202;-88
2024/04/08 02:46:13;;;;;;;6.55;2.38;;;;;;;20.26;36.63;93769.22;5922775;23;20720;-91
2024/04/08 02:49:49;;;;;;;7.85;2.67;;;;;;;20.34;36.19;93764.16;6031519;23;20181;-90
2024/04/08 03:35:29;;;;;;;7.85;2.60;;;;;;;20.63;38.42;93879.09;5865293;24;20242;-90
2024/04/08 03:57:28;;;;;;;10.35;3.38;;;;;;;20.14;40.08;93960.41;6209413;23;20518;-89
2024/04/08 04:00:35;;;;;;;;;;;;;;;;;;;;;
2024/04/08 04:23:26;;;;;;;9.35;2.70;;;;;;;19.35;42.55;94123.28;6087858;23;20345;-88
2024/04/08 06:23:19;;;;;;;14.68;4.32;;;;;;;19.85;46.91;94469.72;5783880;24;20184;-90
2024/04/08 06:26:38;;;;;;;15.63;8.07;;;;;;;19.99;46.49;94456.94;5920096;24;20651;-90
2024/04/08 06:50:11;;;;;;;17.08;4.80;;;;;;;21.14;41.83;94233.63;5785345;24;20210;-90
2024/04/08 07:10:52;;;;;;;14.23;4.18;;;;;;;22.04;39.17;94084.38;5864961;24;20205;-90
2024/04/08 10:37:17;;;;;;;22.13;5.15;;;;;;;29.12;26.03;93268.06;6199488;22;20656;-85
2024/04/08 10:39:42;;;;;;;27.98;5.38;;;;;;;29.00;26.27;93281.47;6232330;23;20192;-86
2024/04/08 10:42:33;;;;;;;19.73;4.78;;;;;;;28.91;27.92;93361.13;6215153;23;20201;-88
2024/04/08 10:44:59;;;;;;;21.65;5.10;;;;;;;28.99;27.40;93354.13;6209159;23;20240;-88
2024/04/08 10:47:25;;;;;;;18.13;4.85;;;;;;;29.05;27.71;93371.28;6212867;23;20185;-88
2024/04/08 10:49:55;;;;;;;23.40;5.40;;;;;;;29.00;26.31;93279.56;6214128;23;20253;-87
2024/04/08 10:52:25;;;;;;;24.98;6.55;;;;;;;29.10;28.06;93403.56;6213012;23;20606;-87
2024/04/08 10:55:04;;;;;;;27.60;6.30;;;;;;;29.04;27.60;93327.34;6214131;23;20245;-87
2024/04/08 10:57:30;;;;;;;32.17;6.72;;;;;;;29.13;27.68;93333.22;6214092;23;20177;-86
2024/04/08 11:03:54;;;;;;;22.83;5.43;;;;;;;29.02;26.44;93269.41;6083680;23;20209;-89
2024/04/08 12:13:47;;;;;;;;;;;;;;;;;;;;;
2024/04/08 12:23:11;;;;;;;22.60;6.18;;;;;;;29.73;26.66;93243.44;6059224;23;20562;-90
2024/04/08 12:29:36;;;;;;;25.67;5.93;;;;;;;29.94;28.08;93317.31;6176091;23;20178;-90
2024/04/08 12:52:24;;;;;;;33.72;10.63;;;;;;;30.12;26.34;93172.44;5869280;23;20177;-88
2024/04/08 13:01:17;;;;;;;37.83;7.32;;;;;;;30.24;26.14;93154.38;6173526;23;20267;-87
2024/04/08 13:04:03;;;;;;;36.42;6.88;;;;;;;30.27;26.16;93168.06;6210329;23;20201;-89
2024/04/08 13:06:47;;;;;;;35.00;6.45;;;;;;;30.32;26.42;93194.31;6209288;23;20193;-88
2024/04/08 13:09:30;;;;;;;33.00;7.38;;;;;;;30.42;27.55;93231.63;6208067;23;20189;-87
2024/04/08 13:15:46;;;;;;;29.42;7.00;;;;;;;30.64;27.74;93250.53;6125877;23;20240;-89
2024/04/08 13:18:29;;;;;;;25.17;6.13;;;;;;;30.55;26.22;93177.22;6210325;23;20165;-88
2024/04/08 13:21:27;;;;;;;;;;;;;;;;;;;;;
2024/04/08 13:23:59;;;;;;;34.08;11.60;;;;;;;30.50;27.22;93212.03;6088186;23;20183;-87
2024/04/08 13:29:37;;;;;;;35.17;6.90;;;;;;;30.27;26.10;93129.00;6209323;23;20193;-88
2024/04/08 13:32:07;;;;;;;33.20;6.75;;;;;;;30.33;25.60;93102.94;6210698;23;20161;-88
2024/04/08 13:34:38;;;;;;;32.05;7.18;;;;;;;30.39;26.47;93152.72;6210374;23;20176;-88
2024/04/08 13:37:25;;;;;;;34.28;6.88;;;;;;;30.33;25.96;93114.31;6210869;23;20162;-88
2024/04/08 13:40:07;;;;;;;;;;;;;;;;;;;;;
2024/04/08 13:45:28;;;;;;;35.53;7.30;;;;;;;30.35;25.43;93063.50;6193715;23;20193;-88
2024/04/08 13:48:03;;;;;;;34.22;7.30;;;;;;;30.38;25.66;93090.09;6208351;23;20173;-88
2024/04/08 13:50:32;;;;;;;27.45;6.03;;;;;;;30.47;26.36;93154.31;6209993;23;20677;-89
2024/04/08 13:53:20;;;;;;;29.17;6.30;;;;;;;30.45;26.25;93126.59;6210607;23;20227;-88
2024/04/08 13:56:03;;;;;;;28.00;6.28;;;;;;;30.47;26.61;93143.69;6209999;23;20237;-88
2024/04/08 13:58:49;;;;;;;28.77;6.88;;;;;;;30.53;27.33;93187.41;6209864;23;20166;-88
2024/04/08 14:01:49;;;;;;;34.63;7.53;;;;;;;30.56;26.21;93125.63;6197465;23;20173;-88
2024/04/08 14:04:35;;;;;;;26.65;6.38;;;;;;;30.55;26.03;93129.41;6187702;23;20180;-88
2024/04/08 14:07:11;;;;;;;36.22;7.90;;;;;;;30.28;25.90;93088.06;6209415;23;20200;-87
2024/04/08 14:09:48;;;;;;;40.85;6.93;;;;;;;30.13;25.79;93089.03;6209716;23;20193;-88
2024/04/08 14:18:51;;;;;;;34.97;8.18;;;;;;;30.03;27.58;93220.44;6193114;23;20177;-89
2024/04/08 14:21:48;;;;;;;31.30;7.72;;;;;;;29.92;26.69;93168.31;6210568;23;20174;-87
2024/04/08 14:24:17;;;;;;;26.20;7.10;;;;;;;29.87;27.18;93178.09;6203347;23;20169;-90
2024/04/08 14:26:51;;;;;;;32.60;7.45;;;;;;;29.95;27.46;93196.78;6210606;23;20190;-89
2024/04/08 14:29:18;;;;;;;32.17;6.65;;;;;;;30.03;27.08;93195.78;6210884;23;20272;-90
2024/04/08 14:31:45;;;;;;;33.33;6.70;;;;;;;30.04;26.08;93163.59;6205921;23;20197;-91
2024/04/08 14:34:15;;;;;;;31.17;6.47;;;;;;;30.09;26.59;93130.66;6208165;23;20220;-89
2024/04/08 14:36:42;;;;;;;30.70;6.65;;;;;;;30.12;26.39;93130.72;6208767;23;20173;-88
2024/04/08 14:39:12;;;;;;;37.45;6.15;;;;;;;30.13;26.66;93115.56;6209741;23;20190;-90
2024/04/08 14:41:38;;;;;;;36.17;7.22;;;;;;;30.07;26.06;93111.69;6209849;23;20502;-90
2024/04/08 14:44:04;;;;;;;42.10;17.23;;;;;;;30.09;26.64;93136.75;6209479;23;20196;-89
2024/04/08 14:46:30;;;;;;;37.17;16.90;;;;;;;30.16;27.19;93199.78;6211008;23;20201;-90
2024/04/08 14:48:58;;;;;;;31.75;9.63;;;;;;;30.16;27.84;93221.03;6211432;23;20660;-90
2024/04/08 14:51:24;;;;;;;33.20;7.47;;;;;;;30.18;28.71;93259.38;6212143;23;20174;-90
2024/04/08 14:53:53;;;;;;;31.10;6.55;;;;;;;30.15;28.40;93270.69;6213272;23;20641;-91
2024/04/08 14:56:20;;;;;;;30.73;6.85;;;;;;;30.09;29.09;93274.00;6211876;23;20671;-91
2024/04/08 14:58:47;;;;;;;28.98;6.85;;;;;;;30.11;29.01;93274.41;6212528;23;20173;-90
2024/04/08 15:01:12;;;;;;;38.08;7.07;;;;;;;30.06;28.45;93253.47;6212919;23;20173;-91
2024/04/08 15:03:40;;;;;;;38.03;7.15;;;;;;;30.01;29.35;93270.47;6211424;23;20626;-90
2024/04/08 15:06:07;;;;;;;32.55;6.32;;;;;;;30.02;28.98;93271.25;6211206;23;20272;-91
2024/04/08 15:08:36;;;;;;;35.00;7.05;;;;;;;30.05;29.05;93278.47;6212333;23;20215;-91
2024/04/08 15:11:02;;;;;;;35.17;11.57;;;;;;;30.00;29.63;93313.28;6211432;23;20527;-90
2024/04/08 15:13:30;;;;;;;72.55;54.13;;;;;;;29.93;30.35;93348.41;6211611;23;20257;-90
2024/04/08 15:15:56;;;;;;;42.65;20.58;;;;;;;29.96;30.54;93368.94;6211903;23;20181;-89
2024/04/08 15:18:24;;;;;;;40.38;11.82;;;;;;;29.93;30.72;93390.09;6211368;23;20170;-89
2024/04/08 15:20:50;;;;;;;34.13;8.10;;;;;;;29.76;30.24;93349.63;6210940;23;20197;-88
2024/04/08 15:23:18;;;;;;;31.70;7.47;;;;;;;29.62;30.32;93332.69;6211575;23;20240;-89
2024/04/08 15:25:43;;;;;;;31.42;7.38;;;;;;;29.62;30.38;93351.25;6211131;23;20198;-89
2024/04/08 15:28:10;;;;;;;35.60;6.95;;;;;;;29.54;30.73;93374.97;6211930;23;20241;-89
2024/04/08 15:30:35;;;;;;;35.30;7.72;;;;;;;29.45;30.17;93349.75;6211843;23;20197;-91
2024/04/08 15:33:02;;;;;;;38.00;6.95;;;;;;;29.40;30.93;93369.41;6211686;23;20180;-89
2024/04/08 15:35:28;;;;;;;28.90;7.18;;;;;;;29.37;31.08;93367.41;6211633;23;20220;-89
2024/04/08 15:37:56;;;;;;;32.63;6.75;;;;;;;29.38;30.67;93378.78;6210779;23;20170;-90
2024/04/08 15:40:25;;;;;;;31.20;7.07;;;;;;;29.36;31.17;93388.97;6210948;23;20540;-89
2024/04/08 15:42:52;;;;;;;45.67;8.02;;;;;;;29.37;30.50;93387.84;6210122;23;20177;-90
2024/04/08 15:45:19;;;;;;;41.58;13.73;;;;;;;29.26;31.16;93379.66;6210947;23;20737;-89
2024/04/08 15:47:45;;;;;;;54.13;22.42;;;;;;;29.24;31.17;93381.16;6211143;23;20227;-90
2024/04/08 15:50:11;;;;;;;44.22;9.10;;;;;;;29.21;31.49;93398.50;6211200;23;20197;-89
2024/04/08 15:52:38;;;;;;;32.22;7.45;;;;;;;29.17;31.15;93406.38;6211088;23;20232;-89
2024/04/08 15:55:06;;;;;;;27.38;7.35;;;;;;;29.08;31.16;93416.38;6211282;23;20166;-90
2024/04/08 15:57:42;;;;;;;31.55;6.97;;;;;;;29.09;31.57;93391.44;6210643;23;20177;-91
2024/04/08 16:00:11;;;;;;;37.00;6.57;;;;;;;28.97;31.92;93414.63;6210796;23;20232;-92
2024/04/08 16:02:40;;;;;;;30.55;6.18;;;;;;;28.89;32.24;93456.06;6211749;23;20177;-89
2024/04/08 16:05:05;;;;;;;33.10;8.02;;;;;;;28.80;32.15;93450.97;6211132;23;20256;-91
2024/04/08 16:07:32;;;;;;;34.42;7.57;;;;;;;28.77;32.32;93454.28;6211753;23;20644;-90
2024/04/08 16:09:58;;;;;;;34.85;7.00;;;;;;;28.74;32.97;93483.31;6210526;23;20236;-91
2024/04/08 16:12:25;;;;;;;33.75;6.72;;;;;;;28.65;33.03;93495.97;6211157;23;20260;-91
2024/04/08 16:14:55;;;;;;;33.75;7.05;;;;;;;28.47;33.61;93520.13;6211260;23;20177;-90
2024/04/08 16:17:21;;;;;;;32.38;8.50;;;;;;;28.44;33.37;93528.75;6211261;23;20178;-90
2024/04/08 16:19:50;;;;;;;37.53;7.80;;;;;;;28.40;33.63;93525.22;6210812;23;20204;-90
2024/04/08 16:22:17;;;;;;;39.65;6.97;;;;;;;28.30;33.38;93531.00;6210892;23;20544;-92
2024/04/08 16:24:45;;;;;;;25.67;6.47;;;;;;;28.23;33.84;93533.47;6210600;23;20580;-91
2024/04/08 16:27:15;;;;;;;34.63;7.20;;;;;;;28.13;33.93;93553.19;6210579;23;20672;-91
2024/04/08 16:29:42;;;;;;;31.55;7.30;;;;;;;28.09;33.79;93560.28;6210525;23;20193;-90
2024/04/08 16:32:12;;;;;;;36.13;6.63;;;;;;;28.02;33.86;93559.31;6211047;23;20688;-91
2024/04/08 16:34:41;;;;;;;38.75;6.90;;;;;;;27.92;34.63;93575.63;6209392;23;20724;-91
2024/04/08 16:37:08;;;;;;;37.97;7.95;;;;;;;27.85;34.78;93590.22;6208469;23;20232;-92
2024/04/08 16:39:35;;;;;;;32.47;7.22;;;;;;;27.82;34.40;93563.66;6210312;23;20198;-91
2024/04/08 16:42:05;;;;;;;26.50;7.00;;;;;;;27.78;34.76;93583.94;6210402;23;20201;-90
2024/04/08 16:44:32;;;;;;;33.97;11.80;;;;;;;27.67;34.57;93604.00;6209653;23;20173;-91
2024/04/08 16:46:59;;;;;;;32.03;8.55;;;;;;;27.56;35.23;93630.06;6209364;23;20224;-91
2024/04/08 16:49:28;;;;;;;30.65;7.53;;;;;;;27.46;35.55;93647.16;6209768;23;20208;-91
2024/04/08 16:51:56;;;;;;;37.58;8.20;;;;;;;27.42;36.18;93656.06;6209436;23;20865;-91
2024/04/08 16:54:31;;;;;;;29.55;6.72;;;;;;;27.36;36.29;93679.28;6209953;23;20169;-91
2024/04/08 16:57:02;;;;;;;38.78;17.55;;;;;;;27.30;36.48;93691.19;6209685;23;20668;-92
2024/04/08 16:59:35;;;;;;;36.38;11.77;;;;;;;27.25;36.53;93687.97;6210311;23;20584;-91
2024/04/08 17:02:23;;;;;;;31.58;8.80;;;;;;;27.15;36.44;93691.78;6210766;23;20502;-92
2024/04/08 17:04:50;;;;;;;33.92;7.72;;;;;;;27.08;36.82;93718.00;6211021;23;20178;-90
2024/04/08 17:07:17;;;;;;;32.30;7.90;;;;;;;27.05;37.08;93724.69;6209713;23;20704;-91
2024/04/08 17:09:45;;;;;;;38.90;7.70;;;;;;;26.97;37.54;93733.47;6209672;23;20189;-87
2024/04/08 17:12:17;;;;;;;32.88;7.38;;;;;;;26.92;37.72;93735.53;6211028;23;20204;-90
2024/04/08 17:15:13;;;;;;;36.10;6.90;;;;;;;26.81;37.71;93748.31;6212384;23;20521;-89
2024/04/08 17:17:43;;;;;;;36.28;7.05;;;;;;;26.76;37.52;93722.09;6150922;23;20181;-89
2024/04/08 17:20:35;;;;;;;30.08;7.88;;;;;;;26.70;37.39;93723.41;6210104;23;20251;-88
2024/04/08 17:23:22;;;;;;;31.67;7.97;;;;;;;26.71;37.46;93725.75;6209883;23;20174;-90
2024/04/08 17:26:21;;;;;;;32.83;9.10;;;;;;;26.75;37.34;93720.56;6209085;23;20275;-90
2024/04/08 17:29:08;;;;;;;47.15;11.32;;;;;;;26.70;37.67;93721.56;6208810;23;20185;-88
2024/04/08 17:31:39;;;;;;;44.42;10.68;;;;;;;26.64;37.79;93724.69;6212010;23;20177;-88
2024/04/08 17:34:19;;;;;;;38.92;10.93;;;;;;;26.58;37.65;93721.47;6212843;23;20182;-88
2024/04/08 17:37:01;;;;;;;33.67;9.38;;;;;;;26.51;37.73;93712.53;6212494;23;20165;-88
2024/04/08 17:39:40;;;;;;;34.30;8.65;;;;;;;26.45;37.76;93725.16;6213132;23;20215;-87
2024/04/08 17:45:01;;;;;;;36.17;8.65;;;;;;;26.26;37.69;93711.59;6165731;23;20176;-88
2024/04/08 17:47:28;;;;;;;30.60;7.85;;;;;;;26.23;38.13;93723.53;6210824;23;20189;-90
2024/04/08 17:49:58;;;;;;;62.60;40.80;;;;;;;26.18;38.04;93734.28;6210679;23;20193;-89
2024/04/08 17:52:24;;;;;;;41.50;22.60;;;;;;;26.17;37.90;93724.81;6210224;23;20180;-90
2024/04/08 17:54:53;;;;;;;36.53;8.75;;;;;;;26.14;38.02;93728.88;6210386;23;20177;-90
2024/04/08 17:57:18;;;;;;;43.65;8.02;;;;;;;26.13;38.39;93731.84;6210178;23;20181;-90
2024/04/08 17:59:45;;;;;;;36.10;7.70;;;;;;;26.08;38.39;93738.06;6209977;23;20240;-90
2024/04/08 18:02:10;;;;;;;28.98;7.13;;;;;;;25.95;38.95;93760.16;6209048;23;20232;-90
2024/04/08 18:04:37;;;;;;;38.25;7.40;;;;;;;25.91;38.65;93748.69;6209899;23;20540;-90
2024/04/08 18:07:03;;;;;;;29.92;7.45;;;;;;;25.85;39.01;93760.50;6209744;23;20204;-89
2024/04/08 18:09:31;;;;;;;37.30;7.45;;;;;;;25.82;39.15;93776.97;6209442;23;20209;-89
2024/04/08 18:11:56;;;;;;;28.20;6.80;;;;;;;25.75;38.67;93763.50;6210101;23;20677;-89
2024/04/08 18:14:23;;;;;;;34.15;7.63;;;;;;;25.68;39.19;93781.66;6210519;23;20200;-89
2024/04/08 18:16:48;;;;;;;34.60;7.45;;;;;;;25.69;39.19;93775.31;6209477;23;20178;-88
2024/04/08 18:19:15;;;;;;;34.92;7.53;;;;;;;25.70;39.03;93780.25;6209620;23;20200;-89
2024/04/08 18:21:42;;;;;;;28.30;8.35;;;;;;;25.63;38.84;93766.78;6212249;23;20203;-89
2024/04/08 18:24:08;;;;;;;37.38;7.30;;;;;;;25.57;38.49;93762.75;6212140;23;20685;-89
2024/04/08 18:26:35;;;;;;;32.97;7.68;;;;;;;25.57;38.98;93768.03;6212097;23;20204;-90
2024/04/08 18:29:01;;;;;;;41.95;10.15;;;;;;;25.55;38.45;93761.53;6212529;23;20177;-89
2024/04/08 18:31:27;;;;;;;37.72;14.50;;;;;;;25.51;39.09;93779.81;6212264;23;20177;-89
2024/04/08 18:33:53;;;;;;;34.38;10.38;;;;;;;25.42;39.06;93798.28;6211959;23;20174;-89
2024/04/08 18:36:19;;;;;;;31.63;7.45;;;;;;;25.34;39.01;93806.19;6211744;23;20173;-89
2024/04/08 18:38:46;;;;;;;37.80;8.68;;;;;;;25.30;39.76;93826.34;6211701;23;20188;-89
2024/04/08 18:41:13;;;;;;;30.90;7.50;;;;;;;25.24;39.79;93820.47;6212230;23;20659;-89
2024/04/08 18:43:42;;;;;;;33.65;7.07;;;;;;;25.26;39.62;93815.66;6210557;23;20173;-89
2024/04/08 18:46:10;;;;;;;39.20;8.00;;;;;;;25.27;39.53;93821.69;6211714;23;20294;-88
2024/04/08 18:48:37;;;;;;;29.00;7.18;;;;;;;25.19;39.72;93817.22;6210807;23;20196;-89
2024/04/08 18:51:04;;;;;;;40.50;8.43;;;;;;;25.17;39.78;93822.81;6210865;23;20697;-88
2024/04/08 18:53:30;;;;;;;34.75;7.72;;;;;;;25.17;40.13;93837.84;6211414;23;20178;-89
2024/04/08 18:55:56;;;;;;;36.15;7.88;;;;;;;25.13;40.09;93840.31;6210945;23;20177;-89
2024/04/08 18:58:22;;;;;;;30.65;7.97;;;;;;;25.10;40.19;93856.72;6211907;23;20181;-89
2024/04/08 19:00:49;;;;;;;39.70;7.93;;;;;;;25.06;40.63;93877.63;6211055;23;20869;-88
2024/04/08 19:03:16;;;;;;;38.72;8.07;;;;;;;25.03;40.87;93893.25;6211215;23;20180;-88
2024/04/08 19:05:42;;;;;;;31.35;7.45;;;;;;;24.86;41.02;93907.16;6211180;23;20189;-89
2024/04/08 19:08:09;;;;;;;33.33;7.47;;;;;;;24.80;41.60;93921.56;6210898;23;20816;-88
2024/04/08 19:10:35;;;;;;;35.75;8.18;;;;;;;24.72;41.71;93933.59;6211043;23;20201;-89
2024/04/08 19:13:02;;;;;;;30.58;8.13;;;;;;;24.68;41.82;93924.75;6211500;23;20170;-89
2024/04/08 19:15:27;;;;;;;24.58;8.30;;;;;;;24.64;42.19;93938.81;6211398;23;20244;-89
2024/04/08 19:17:55;;;;;;;32.30;8.45;;;;;;;24.58;42.54;93945.31;6214685;23;20165;-88
2024/04/08 19:20:21;;;;;;;26.40;8.60;;;;;;;24.52;42.15;93949.94;6212936;23;20535;-89
2024/04/08 19:22:49;;;;;;;28.98;8.50;;;;;;;24.43;42.57;93960.44;6210984;23;20201;-88
2024/04/08 19:25:15;;;;;;;34.85;8.63;;;;;;;24.36;42.92;93975.09;6211445;23;20185;-88
2024/04/08 19:27:42;;;;;;;38.28;8.23;;;;;;;24.23;43.50;93996.97;6211235;23;20200;-89
2024/04/08 19:30:08;;;;;;;25.23;8.13;;;;;;;24.15;43.44;94003.72;6211839;23;20508;-89
2024/04/08 19:32:36;;;;;;;30.63;9.68;;;;;;;24.06;43.89;94026.53;6211390;23;20260;-88
2024/04/08 19:35:04;;;;;;;28.83;9.38;;;;;;;23.93;44.74;94051.03;6212419;23;20180;-89
2024/04/08 19:37:33;;;;;;;29.83;8.55;;;;;;;23.97;44.17;94046.75;6211136;23;20549;-89
2024/04/08 19:39:59;;;;;;;34.88;8.65;;;;;;;24.00;44.69;94062.72;6210361;23;20201;-89
2024/04/08 19:42:26;;;;;;;33.33;10.35;;;;;;;23.96;45.23;94074.88;6210102;23;20177;-89
2024/04/08 19:44:52;;;;;;;31.73;9.02;;;;;;;23.96;45.14;94085.41;6211541;23;20177;-89
2024/04/08 19:47:19;;;;;;;34.08;9.48;;;;;;;23.93;45.02;94072.84;6210510;23;20197;-89
2024/04/08 19:49:44;;;;;;;35.45;9.98;;;;;;;23.94;45.15;94069.13;6210934;23;20221;-89
2024/04/08 19:52:12;;;;;;;23.70;8.02;;;;;;;23.92;45.05;94075.75;6210524;23;20178;-89
2024/04/08 19:54:41;;;;;;;27.38;7.78;;;;;;;23.83;45.81;94080.19;6210383;23;20177;-89
2024/04/08 19:57:07;;;;;;;28.35;8.98;;;;;;;23.80;45.84;94102.59;6210999;23;20182;-89
2024/04/08 19:59:33;;;;;;;26.92;9.52;;;;;;;23.82;45.87;94107.53;6210754;23;20712;-88
2024/04/08 20:02:03;;;;;;;26.92;7.75;;;;;;;23.83;45.86;94101.22;6210421;23;20213;-89
2024/04/08 20:04:31;;;;;;;31.77;7.32;;;;;;;23.79;46.13;94119.41;6210955;23;20520;-88
2024/04/08 20:07:00;;;;;;;22.83;7.35;;;;;;;23.84;45.63;94108.03;6210345;23;20178;-88
2024/04/08 20:09:27;;;;;;;31.30;10.13;;;;;;;23.84;46.50;94113.28;6210282;23;20190;-89
2024/04/08 20:11:57;;;;;;;29.52;7.22;;;;;;;23.80;46.48;94120.97;6210710;23;20555;-89
2024/04/08 20:14:22;;;;;;;24.08;6.53;;;;;;;23.74;46.29;94120.28;6211012;23;20173;-90
2024/04/08 20:16:52;;;;;;;26.95;7.20;;;;;;;23.70;46.68;94116.69;6210089;23;20184;-89
2024/04/08 20:19:17;;;;;;;26.75;7.60;;;;;;;23.67;46.61;94119.91;6210126;23;20197;-89
2024/04/08 20:21:44;;;;;;;30.25;8.38;;;;;;;23.69;46.89;94116.97;6210478;23;20165;-89
2024/04/08 20:24:12;;;;;;;29.52;9.07;;;;;;;23.70;47.10;94135.09;6210547;23;20209;-89
2024/04/08 20:26:40;;;;;;;24.38;6.95;;;;;;;23.70;46.76;94115.91;6210490;23;20205;-89
2024/04/08 20:29:06;;;;;;;27.63;7.65;;;;;;;23.67;46.94;94119.91;6209871;23;20668;-89
2024/04/08 20:31:32;;;;;;;30.98;7.68;;;;;;;23.65;47.03;94132.59;6210742;23;20157;-89
2024/04/08 20:33:58;;;;;;;29.25;7.85;;;;;;;23.58;47.10;94144.56;6210697;23;20177;-89
2024/04/08 20:36:27;;;;;;;25.17;7.25;;;;;;;23.49;47.53;94162.03;6210588;23;20176;-89
2024/04/08 20:38:53;;;;;;;24.58;7.75;;;;;;;23.31;48.67;94197.81;6210046;23;20165;-88
2024/04/08 20:41:20;;;;;;;21.65;8.38;;;;;;;23.21;48.52;94208.50;6210633;23;20173;-87
2024/04/08 20:43:47;;;;;;;25.58;7.75;;;;;;;23.16;49.47;94225.13;6208071;23;20188;-88
2024/04/08 20:46:14;;;;;;;34.20;7.80;;;;;;;23.12;49.33;94228.59;6210545;23;20177;-88
2024/04/08 20:48:45;;;;;;;24.35;7.90;;;;;;;23.12;49.03;94207.59;6209612;23;20185;-89
2024/04/08 20:51:12;;;;;;;25.83;7.70;;;;;;;23.10;49.44;94210.50;6210155;23;20661;-89
2024/04/08 20:53:37;;;;;;;33.17;8.60;;;;;;;23.05;49.58;94239.50;6209981;23;20768;-89
2024/04/08 20:56:07;;;;;;;24.02;8.05;;;;;;;22.96;49.16;94207.84;6210275;23;20177;-88
2024/04/08 20:58:33;;;;;;;34.50;8.13;;;;;;;22.95;48.99;94206.28;6210688;23;20180;-88
2024/04/08 21:01:05;;;;;;;31.42;7.63;;;;;;;22.94;48.39;94172.44;6210294;23;20181;-89
2024/04/08 21:03:30;;;;;;;25.48;7.25;;;;;;;23.00;47.42;94116.97;6210841;23;20212;-88
2024/04/08 21:06:01;;;;;;;23.27;6.85;;;;;;;23.05;45.61;94037.34;6210542;23;20185;-89
2024/04/08 21:08:26;;;;;;;31.63;6.80;;;;;;;23.09;44.03;93941.94;6210686;23;20251;-88
2024/04/08 21:10:53;;;;;;;23.42;6.05;;;;;;;23.15;42.98;93881.44;6210374;23;20193;-88
2024/04/08 21:13:21;;;;;;;28.17;6.82;;;;;;;23.12;43.32;93895.16;6210767;23;20181;-89
2024/04/08 21:15:54;;;;;;;27.20;7.10;;;;;;;23.13;43.48;93902.72;6209920;23;20676;-88
2024/04/08 21:18:21;;;;;;;29.38;6.45;;;;;;;23.09;42.80;93868.41;6210634;23;20165;-89
2024/04/08 21:20:49;;;;;;;25.95;6.53;;;;;;;23.10;43.04;93879.69;6209826;23;20228;-88
2024/04/08 21:23:15;;;;;;;24.15;6.68;;;;;;;23.14;42.94;93864.91;6210552;23;20232;-89
2024/04/08 21:25:41;;;;;;;23.35;5.90;;;;;;;23.17;42.38;93850.41;6210002;23;20174;-89
2024/04/08 21:28:06;;;;;;;20.70;5.75;;;;;;;23.14;42.06;93812.41;6210777;23;20200;-89
2024/04/08 21:30:35;;;;;;;21.85;6.72;;;;;;;23.00;40.65;93757.34;6210263;23;20668;-88
2024/04/08 21:33:01;;;;;;;23.02;6.10;;;;;;;23.03;41.22;93777.75;6210548;23;20185;-89
2024/04/08 21:35:30;;;;;;;21.67;5.82;;;;;;;23.04;40.89;93760.91;6209924;23;20177;-88
2024/04/08 21:37:56;;;;;;;21.75;5.80;;;;;;;23.01;40.62;93722.13;6210425;23;20169;-89
2024/04/08 21:40:23;;;;;;;20.85;5.10;;;;;;;23.04;39.73;93684.00;6210324;23;20678;-89
2024/04/08 21:42:49;;;;;;;20.20;5.25;;;;;;;23.07;39.16;93641.41;6209753;23;20232;-89
2024/04/08 21:45:18;;;;;;;23.23;5.88;;;;;;;23.11;38.06;93591.69;6210357;23;20173;-88
2024/04/08 21:47:44;;;;;;;16.98;4.70;;;;;;;23.09;37.60;93571.00;6210206;23;20225;-89
2024/04/08 21:50:11;;;;;;;32.20;5.78;;;;;;;23.00;36.40;93502.72;6210159;23;20204;-89
2024/04/08 21:52:38;;;;;;;22.35;5.00;;;;;;;23.08;36.45;93502.00;6209709;23;20177;-88
2024/04/08 21:55:05;;;;;;;19.98;4.35;;;;;;;23.08;35.82;93446.09;6210388;23;20170;-89
2024/04/08 21:57:31;;;;;;;19.42;4.57;;;;;;;23.09;35.44;93427.38;6210793;23;20174;-89
2024/04/08 21:59:58;;;;;;;21.80;5.30;;;;;;;23.13;35.27;93427.53;6210063;23;20520;-88
2024/04/08 22:02:23;;;;;;;19.45;5.30;;;;;;;23.08;35.58;93427.72;6209614;23;20205;-90
2024/04/08 22:04:49;;;;;;;20.52;4.80;;;;;;;23.00;35.72;93405.59;6210149;23;20216;-88
2024/04/08 22:07:15;;;;;;;18.40;5.18;;;;;;;23.00;35.90;93425.84;6209451;23;20197;-88
2024/04/08 22:09:45;;;;;;;20.95;4.78;;;;;;;23.02;34.87;93392.19;6209068;23;20712;-88
2024/04/08 22:12:13;;;;;;;19.60;4.70;;;;;;;23.04;34.81;93380.31;6210771;23;20188;-89
2024/04/08 22:14:42;;;;;;;18.50;4.80;;;;;;;23.01;34.88;93365.16;6209859;23;20187;-88
2024/04/08 22:17:07;;;;;;;19.10;4.70;;;;;;;22.98;35.01;93370.25;6210403;23;20177;-88
2024/04/08 22:19:34;;;;;;;17.35;4.20;;;;;;;22.95;34.88;93355.88;6210569;23;20548;-89
2024/04/08 22:21:59;;;;;;;29.27;5.53;;;;;;;22.93;34.88;93360.66;6209736;23;20230;-89
2024/04/08 22:24:27;;;;;;;15.32;4.88;;;;;;;22.88;34.49;93347.72;6210046;23;20181;-89
2024/04/08 22:26:54;;;;;;;18.42;4.70;;;;;;;22.82;34.26;93325.31;6209790;23;20205;-89
2024/04/08 22:29:21;;;;;;;16.13;4.30;;;;;;;22.78;34.41;93334.88;6209879;23;20693;-89
2024/04/08 22:31:49;;;;;;;18.33;4.40;;;;;;;22.76;34.48;93326.50;6209824;23;20237;-89
2024/04/08 22:34:15;;;;;;;20.52;4.82;;;;;;;22.72;34.24;93300.13;6210285;23;20637;-88
2024/04/08 22:36:41;;;;;;;16.95;4.25;;;;;;;22.67;34.42;93310.78;6209876;23;20174;-89
2024/04/08 22:39:08;;;;;;;15.02;4.05;;;;;;;22.71;34.10;93292.56;6210256;23;20168;-88
2024/04/08 22:41:34;;;;;;;12.48;3.92;;;;;;;22.66;33.58;93277.75;6209415;23;20479;-89
2024/04/08 22:44:02;;;;;;;19.17;4.25;;;;;;;22.69;33.88;93276.38;6209237;23;20177;-88
2024/04/08 22:46:30;;;;;;;16.40;4.53;;;;;;;22.70;33.81;93283.94;6209237;23;20204;-88
2024/04/08 22:48:58;;;;;;;14.60;3.95;;;;;;;22.73;33.14;93249.19;6210065;23;20486;-89
2024/04/08 22:51:24;;;;;;;13.27;4.15;;;;;;;22.78;33.32;93247.53;6209695;23;20169;-88
2024/04/08 22:53:51;;;;;;;19.20;4.22;;;;;;;22.83;32.72;93223.78;6210139;23;20506;-88
2024/04/08 22:56:16;;;;;;;18.70;4.60;;;;;;;22.85;32.54;93209.25;6209715;23;20205;-89
2024/04/08 22:58:43;;;;;;;16.05;4.15;;;;;;;22.84;32.18;93180.72;6210135;23;20672;-89
2024/04/08 23:01:09;;;;;;;13.25;4.25;;;;;;;22.88;32.22;93187.66;6209798;23;20204;-88
2024/04/08 23:03:36;;;;;;;15.27;3.60;;;;;;;22.90;32.14;93166.34;6210016;23;20215;-89
2024/04/08 23:06:02;;;;;;;18.38;4.13;;;;;;;22.92;32.00;93164.16;6210096;23;20181;-89
2024/04/08 23:08:28;;;;;;;16.42;3.63;;;;;;;22.93;31.97;93158.59;6211548;23;20197;-88
2024/04/08 23:10:54;;;;;;;13.45;4.13;;;;;;;22.95;31.30;93130.19;6211706;23;20209;-88
2024/04/08 23:13:23;;;;;;;12.02;3.47;;;;;;;22.95;31.33;93114.44;6211620;23;20174;-89
2024/04/08 23:15:49;;;;;;;10.40;3.72;;;;;;;22.99;31.34;93112.75;6210799;23;20197;-89
2024/04/08 23:18:17;;;;;;;10.88;3.83;;;;;;;22.99;31.04;93098.84;6212006;23;20560;-88
2024/04/08 23:20:42;;;;;;;17.95;4.05;;;;;;;23.03;31.17;93095.28;6211387;23;20197;-89
2024/04/08 23:23:08;;;;;;;12.80;3.28;;;;;;;23.05;31.15;93085.25;6211226;23;20181;-89
2024/04/08 23:25:35;;;;;;;10.43;3.30;;;;;;;23.03;30.59;93066.41;6211827;23;20177;-89
2024/04/08 23:28:01;;;;;;;14.23;3.75;;;;;;;23.07;30.70;93066.56;6211419;23;20201;-89
2024/04/08 23:30:29;;;;;;;12.18;4.07;;;;;;;23.10;30.29;93052.78;6211131;23;20232;-88
2024/04/08 23:32:57;;;;;;;13.35;3.40;;;;;;;23.09;30.24;93038.16;6211603;23;20243;-89